Glenwood Springs, CO

2:20 PM MDT on September 22, 2014 (GMT -0600)
Aspen-Pitkin County / Sardy Field | Change Station
CLOSE
Current Station
Airport
Location: Aspen,
Elevation: 7822 ft
Nearby Weather Stations
Active Advisory: Areal Flood Advisory

Elev 7822 ft 39.23 °N, 106.87 °W | Updated 27 minutes ago

Mostly Cloudy
Mostly Cloudy
62 °F
Feels Like 62 °F
N
13
Wind Variable Wind from NW
Gusts 18 mph

Today
High -- | Low -- °F
--% Chance of Precip.
Yesterday
High -- | Low -- °F
Precip. -- in
6:57 AM 7:06 PM
Waning Crescent, 2% visible
Pressure 30.02 in
Visibility 10.0 miles
Clouds Scattered Clouds 10000 ft
Dew Point 48 °F
Humidity 60%
Rainfall 0.00 in
Snow Depth 0 in , 0 in , 0 in
UV 7 out of 12
Pollen 4.70 out of 12
Air Quality Not available.
Flu Activity Not available.
METAR KASE 221953Z COR 32011G16KT 10SM SCT100 17/09 A3034 RMK AO2 LTG DSNT W SLP166 T01670089

More Conditions Fewer Conditions

Pressure 30.02 in
Visibility 10.0 miles
Clouds Scattered Clouds 10000 ft
Dew Point 48 °F
Humidity 60%
Rainfall 0.00 in
Snow Depth 0 in , 0 in , 0 in
UV 7 out of 12
Pollen 4.70 out of 12
Air Quality Not available.
Flu Activity Not available.
METAR KASE 221953Z COR 32011G16KT 10SM SCT100 17/09 A3034 RMK AO2 LTG DSNT W SLP166 T01670089

More Conditions Fewer Conditions

10-Day Weather Forecast

Almanac

Astronomy

Sep. 22, 2014 Rise Set
Actual Time 6:57 AM MDT 7:06 PM MDT
Civil Twilight 6:30 AM MDT 7:33 PM MDT
Nautical Twilight 5:58 AM MDT 8:04 PM MDT
Astronomical Twilight 5:26 AM MDT 8:36 PM MDT
Moon 5:28 AM MDT 6:15 PM MDT
Length of Visible Light 13h 02m
Length of Day
12h 09m
Tomorrow will be 2m 34s shorter.
Waning Crescent, 2% of the Moon is Illuminated
Today
Waning Crescent
Sep 24
New
Oct 1
First Quarter
Oct 8
Full
Oct 15
Last Quarter

Today's Extremes

State Highs State Lows

Community

WunderPhotos

Upload Photos

1,755,523 photos uploaded!

WunderBlogs® & News

Nearby

Snow Depth

Station Depth Elevation
Burro Mountain 0 in 9400 ft
Elk River 0 in 8700 ft
Trapper Lake 0 in 9700 ft
Mccoy Park 10 in 9480 ft
Apishapa 0 in 10000 ft

Earthquake Activity

City Distance Mag. Time & Date
No recent earthquake activity has been reported nearby.
Minimum magnitude displayed is 2.5.

Coastal Water Temperatures

Place Temperature
No Stations Reporting

Nearby Weather Stations